Time;durP1;ratioP1;P1;durP2;ratioP2;P2;SDS_P1;SDS_P2;PMS_P1;PMS_P2;Temp;Humidity;BMP_temperature;BMP_pressure;BME280_temperature;BME280_humidity;BME280_pressure;Samples;Min_cycle;Max_cycle;Signal;HPM_P1;HPM_P2
2022/06/12 00:00:37;;;;;;;1999.90;999.90;;;16.70;99.90;;;;;;5022315;28;20192;-73
2022/06/12 00:03:05;;;;;;;1999.90;999.90;;;16.50;99.90;;;;;;5018335;28;20202;-73
2022/06/12 00:05:34;;;;;;;1999.90;999.90;;;16.40;99.90;;;;;;5031622;28;20667;-73
2022/06/12 00:08:00;;;;;;;1999.90;999.90;;;16.30;99.90;;;;;;5035509;28;20572;-74
2022/06/12 00:10:26;;;;;;;1999.90;999.90;;;16.30;99.90;;;;;;5030035;28;20659;-73
2022/06/12 00:12:51;;;;;;;1999.90;999.90;;;16.20;99.90;;;;;;5030888;28;20194;-73
2022/06/12 00:15:21;;;;;;;1999.90;999.90;;;16.20;99.90;;;;;;5025384;28;20215;-73
2022/06/12 00:17:47;;;;;;;1999.90;999.90;;;16.10;99.90;;;;;;5027484;28;20186;-73
2022/06/12 00:20:15;;;;;;;1999.90;999.90;;;16.10;99.90;;;;;;5034349;28;20243;-73
2022/06/12 00:22:42;;;;;;;1999.90;999.90;;;16.10;99.90;;;;;;5023244;28;20660;-72
2022/06/12 00:25:09;;;;;;;1999.90;999.90;;;16.00;99.90;;;;;;5022803;28;20191;-72
2022/06/12 00:27:38;;;;;;;1999.90;999.90;;;15.90;99.90;;;;;;5034603;28;20193;-73
2022/06/12 00:30:07;;;;;;;1999.90;999.90;;;15.90;99.90;;;;;;5032911;28;20183;-72
2022/06/12 00:32:33;;;;;;;1999.90;999.90;;;15.90;99.90;;;;;;5049416;28;20658;-72
2022/06/12 00:34:59;;;;;;;1999.90;999.90;;;15.90;99.90;;;;;;5039542;28;20219;-72
2022/06/12 00:37:26;;;;;;;1999.90;999.90;;;15.90;99.90;;;;;;5032463;28;20186;-73
2022/06/12 00:39:54;;;;;;;1999.90;999.90;;;15.90;99.90;;;;;;5049749;28;20191;-73
2022/06/12 00:42:30;;;;;;;1999.90;999.90;;;15.90;99.90;;;;;;5021225;28;20199;-73
2022/06/12 00:44:59;;;;;;;1999.90;999.90;;;15.90;99.90;;;;;;5030403;28;20186;-71
2022/06/12 00:47:26;;;;;;;1999.90;999.90;;;15.90;99.90;;;;;;5032075;28;20186;-71
2022/06/12 00:49:57;;;;;;;1999.90;999.90;;;15.90;99.90;;;;;;5034174;28;20182;-71
2022/06/12 00:52:40;;;;;;;1680.85;890.47;;;15.80;99.90;;;;;;5022255;28;20696;-70
2022/06/12 00:55:41;;;;;;;991.97;789.88;;;15.70;99.90;;;;;;5023596;28;20211;-71
2022/06/12 00:58:15;;;;;;;1211.90;991.20;;;15.60;99.90;;;;;;5026068;28;20333;-71
2022/06/12 01:00:44;;;;;;;1312.47;999.90;;;15.60;99.90;;;;;;5022719;28;20188;-71
2022/06/12 01:03:10;;;;;;;1276.05;999.90;;;15.50;99.90;;;;;;5030734;28;20575;-71
2022/06/12 01:08:22;;;;;;;1257.40;999.90;;;15.40;99.90;;;;;;5031372;28;20210;-73
2022/06/12 01:10:50;;;;;;;1255.45;999.90;;;15.30;99.90;;;;;;5019371;28;20554;-71
2022/06/12 01:13:22;;;;;;;1275.93;999.90;;;15.20;99.90;;;;;;5025929;28;20209;-73
2022/06/12 01:15:56;;;;;;;1245.22;999.90;;;15.20;99.90;;;;;;5048080;28;20213;-71
2022/06/12 01:18:26;;;;;;;1214.43;999.90;;;15.20;99.90;;;;;;5031515;28;20240;-71
2022/06/12 01:21:33;;;;;;;1189.93;999.90;;;15.20;99.90;;;;;;5033073;28;20305;-71
2022/06/12 01:24:02;;;;;;;1193.43;999.90;;;15.10;99.90;;;;;;5017755;28;20194;-70
2022/06/12 01:27:09;;;;;;;1181.32;999.90;;;15.20;99.90;;;;;;5032226;28;20175;-71
2022/06/12 01:29:51;;;;;;;1155.57;999.90;;;15.20;99.90;;;;;;5030981;28;20198;-70
2022/06/12 01:32:37;;;;;;;1127.63;999.90;;;15.20;99.90;;;;;;5032189;28;20214;-71
2022/06/12 01:35:36;;;;;;;1108.75;999.90;;;15.20;99.90;;;;;;5031551;28;20211;-71
2022/06/12 01:38:04;;;;;;;1102.30;999.90;;;15.20;99.90;;;;;;5030116;28;20191;-71
2022/06/12 01:40:52;;;;;;;1077.40;998.45;;;15.10;99.90;;;;;;5029695;28;20239;-72
2022/06/12 01:43:27;;;;;;;1005.22;936.53;;;15.10;99.90;;;;;;5031083;28;20182;-72
2022/06/12 01:46:02;;;;;;;979.30;913.90;;;15.00;99.90;;;;;;5026274;28;20240;-71
2022/06/12 01:48:28;;;;;;;924.28;864.95;;;15.10;99.90;;;;;;5044131;28;20217;-71
2022/06/12 01:51:04;;;;;;;865.53;812.03;;;15.00;99.90;;;;;;5032718;28;20655;-71
2022/06/12 01:54:03;;;;;;;850.88;798.63;;;15.00;99.90;;;;;;5030901;28;20210;-71
2022/06/12 01:56:44;;;;;;;816.50;767.67;;;15.00;99.90;;;;;;5030936;28;20186;-71
2022/06/12 01:59:26;;;;;;;818.47;769.38;;;15.00;99.90;;;;;;5040858;28;20217;-71
2022/06/12 02:02:12;;;;;;;767.42;723.05;;;15.00;99.90;;;;;;5023407;28;20666;-71
2022/06/12 02:04:50;;;;;;;736.92;695.38;;;14.90;99.90;;;;;;5026874;28;20265;-71
2022/06/12 02:08:02;;;;;;;625.47;592.65;;;14.90;99.90;;;;;;5018502;28;20535;-71
2022/06/12 02:10:44;;;;;;;583.67;554.40;;;14.90;99.90;;;;;;5014414;28;20198;-71
2022/06/12 02:13:16;;;;;;;676.33;640.47;;;14.90;99.90;;;;;;5023957;28;20591;-71
2022/06/12 02:16:06;;;;;;;699.15;661.83;;;14.80;99.90;;;;;;5027407;28;20582;-71
2022/06/12 02:18:43;;;;;;;739.05;698.00;;;14.80;99.90;;;;;;5029425;28;20214;-71
2022/06/12 02:21:28;;;;;;;646.30;613.53;;;14.80;99.90;;;;;;5046267;28;20183;-71
2022/06/12 02:24:14;;;;;;;662.47;629.15;;;14.80;99.90;;;;;;5018995;28;20674;-71
2022/06/12 02:26:57;;;;;;;555.05;530.00;;;14.80;99.90;;;;;;5029295;28;20563;-71
2022/06/12 02:29:45;;;;;;;623.53;593.25;;;14.80;99.90;;;;;;5020384;28;20186;-71
2022/06/12 02:32:21;;;;;;;753.58;710.95;;;14.70;99.90;;;;;;5030767;28;20213;-71
2022/06/12 02:34:55;;;;;;;673.90;638.45;;;14.70;99.90;;;;;;5015769;28;20198;-71
2022/06/12 02:37:27;;;;;;;601.60;572.17;;;14.70;99.90;;;;;;5036404;28;20187;-71
2022/06/12 02:40:02;;;;;;;560.70;534.03;;;14.70;99.90;;;;;;5023565;28;20175;-71
2022/06/12 02:42:32;;;;;;;564.97;538.30;;;14.70;99.90;;;;;;5028375;28;20647;-71
2022/06/12 02:45:16;;;;;;;571.42;544.53;;;14.70;99.90;;;;;;5027638;28;20179;-71
2022/06/12 02:47:44;;;;;;;447.35;428.08;;;14.80;99.90;;;;;;5034567;28;20186;-71
2022/06/12 02:50:12;;;;;;;377.38;362.15;;;14.70;99.90;;;;;;5029947;28;20199;-71
2022/06/12 02:52:52;;;;;;;271.88;260.73;;;14.70;99.90;;;;;;5018460;28;20202;-71
2022/06/12 02:55:37;;;;;;;217.85;209.23;;;14.70;99.90;;;;;;5016176;28;20278;-72
2022/06/12 02:58:40;;;;;;;137.15;132.10;;;14.70;99.90;;;;;;5025937;28;20186;-71
2022/06/12 03:01:13;;;;;;;106.38;102.20;;;14.70;99.90;;;;;;4985787;28;20286;-71
2022/06/12 03:03:45;;;;;;;138.18;132.90;;;14.70;99.90;;;;;;4993882;28;20291;-71
2022/06/12 03:06:12;;;;;;;131.88;127.10;;;14.70;99.90;;;;;;5010223;28;20213;-71
2022/06/12 03:08:44;;;;;;;143.95;137.85;;;14.70;99.90;;;;;;5035718;28;20184;-71
2022/06/12 03:11:33;;;;;;;120.82;116.28;;;14.70;99.90;;;;;;5050730;28;20182;-72
2022/06/12 03:14:00;;;;;;;175.32;168.65;;;14.60;99.90;;;;;;5034645;28;20183;-72
2022/06/12 03:16:32;;;;;;;296.42;284.38;;;14.70;99.90;;;;;;5035073;28;20190;-71
2022/06/12 03:19:15;;;;;;;267.65;256.88;;;14.70;99.90;;;;;;5030114;28;20178;-71
2022/06/12 03:22:02;;;;;;;332.00;318.13;;;14.70;99.90;;;;;;5028413;28;20575;-72
2022/06/12 03:24:52;;;;;;;363.10;347.85;;;14.60;99.90;;;;;;5032738;28;20241;-72
2022/06/12 03:27:49;;;;;;;297.42;284.98;;;14.60;99.90;;;;;;5028714;28;20221;-71
2022/06/12 03:30:23;;;;;;;290.63;278.73;;;14.60;99.90;;;;;;5031794;28;20195;-72
2022/06/12 03:33:30;;;;;;;285.00;273.45;;;14.60;99.90;;;;;;5030200;28;20194;-72
2022/06/12 03:36:03;;;;;;;234.30;225.40;;;14.60;99.90;;;;;;5015460;28;20276;-72
2022/06/12 03:38:35;;;;;;;257.40;247.60;;;14.60;99.90;;;;;;5034906;28;20236;-71
2022/06/12 03:41:08;;;;;;;222.30;213.70;;;14.50;99.90;;;;;;5034160;28;20191;-71
2022/06/12 03:43:52;;;;;;;243.95;234.00;;;14.50;99.90;;;;;;5016949;28;20174;-71
2022/06/12 03:46:30;;;;;;;167.90;161.13;;;14.60;99.90;;;;;;5034814;28;20547;-71
2022/06/12 03:49:02;;;;;;;192.77;184.90;;;14.70;99.90;;;;;;5020868;28;20536;-72
2022/06/12 03:51:36;;;;;;;164.52;158.25;;;14.70;99.90;;;;;;5050342;28;20183;-71
2022/06/12 03:54:20;;;;;;;196.85;189.20;;;14.80;99.90;;;;;;5032444;28;20185;-72
2022/06/12 04:00:18;;;;;;;161.98;156.02;;;15.00;99.90;;;;;;5034656;28;20280;-71
2022/06/12 04:02:50;;;;;;;157.20;151.23;;;15.00;99.90;;;;;;5016723;28;20585;-71
2022/06/12 04:05:39;;;;;;;140.18;134.98;;;15.00;99.90;;;;;;5038710;28;20187;-72
2022/06/12 04:08:09;;;;;;;122.55;117.78;;;15.00;99.90;;;;;;5031817;28;20222;-71
2022/06/12 04:10:38;;;;;;;125.65;120.72;;;15.10;99.90;;;;;;5031474;28;20225;-71
2022/06/12 04:13:06;;;;;;;123.53;118.82;;;15.30;99.90;;;;;;5029924;28;20304;-71
2022/06/12 04:15:39;;;;;;;125.22;120.47;;;15.30;99.90;;;;;;5040952;28;20206;-71
2022/06/12 04:18:05;;;;;;;137.63;132.60;;;15.20;99.90;;;;;;5034069;28;20213;-71
2022/06/12 04:20:49;;;;;;;123.90;119.13;;;15.30;99.90;;;;;;5034109;28;20209;-71
2022/06/12 04:23:24;;;;;;;121.43;115.93;;;15.30;99.90;;;;;;5033612;28;20195;-72
2022/06/12 04:25:55;;;;;;;116.22;111.45;;;15.30;99.90;;;;;;5032147;28;20558;-72
2022/06/12 04:28:32;;;;;;;121.85;115.93;;;15.50;99.90;;;;;;5034178;28;20272;-71
2022/06/12 04:30:59;;;;;;;108.93;104.35;;;15.60;99.90;;;;;;5048608;28;20188;-71
2022/06/12 04:33:40;;;;;;;127.05;122.25;;;15.60;99.90;;;;;;5028066;28;20189;-71
2022/06/12 04:36:08;;;;;;;107.93;103.28;;;15.80;99.90;;;;;;5028810;28;20207;-71
2022/06/12 04:38:36;;;;;;;120.60;116.32;;;15.80;99.90;;;;;;5033297;28;20206;-71
2022/06/12 04:41:02;;;;;;;123.63;118.75;;;15.80;99.90;;;;;;5033426;28;20709;-71
2022/06/12 04:43:28;;;;;;;115.43;110.82;;;16.00;99.90;;;;;;5020107;28;20182;-71
2022/06/12 04:45:54;;;;;;;117.93;113.57;;;16.00;99.90;;;;;;5021243;28;20194;-71
2022/06/12 04:48:34;;;;;;;116.60;112.13;;;16.00;99.90;;;;;;5026575;28;20274;-71
2022/06/12 04:51:00;;;;;;;112.93;108.35;;;16.00;99.90;;;;;;5022914;28;20536;-71
2022/06/12 04:53:26;;;;;;;101.97;97.82;;;16.00;99.90;;;;;;5028862;28;20198;-71
2022/06/12 04:55:52;;;;;;;114.90;110.68;;;16.00;99.90;;;;;;5016598;28;20211;-71
2022/06/12 04:58:18;;;;;;;110.63;105.70;;;16.00;99.90;;;;;;5030947;28;20186;-71
2022/06/12 05:00:44;;;;;;;108.47;103.68;;;16.00;99.90;;;;;;5032276;28;20187;-70
2022/06/12 05:03:12;;;;;;;107.13;103.00;;;16.10;99.90;;;;;;5026789;28;20199;-71
2022/06/12 05:05:38;;;;;;;104.55;100.78;;;16.10;99.90;;;;;;5023540;28;20190;-71
2022/06/12 05:08:04;;;;;;;98.22;94.57;;;16.30;99.90;;;;;;5018777;28;20222;-71
2022/06/12 05:10:30;;;;;;;104.97;100.90;;;16.40;99.90;;;;;;5025399;28;20195;-71
2022/06/12 05:12:56;;;;;;;94.30;90.20;;;16.40;99.90;;;;;;5031922;28;20550;-71
2022/06/12 05:15:22;;;;;;;102.38;98.18;;;16.30;99.90;;;;;;5031958;28;20236;-71
2022/06/12 05:17:49;;;;;;;107.70;103.55;;;16.40;99.90;;;;;;5029425;28;20547;-71
2022/06/12 05:20:24;;;;;;;103.72;99.18;;;16.50;99.90;;;;;;5014175;28;20314;-70
2022/06/12 05:22:50;;;;;;;109.45;105.18;;;16.60;99.90;;;;;;5028850;28;20170;-71
2022/06/12 05:25:17;;;;;;;108.28;104.30;;;16.40;99.90;;;;;;5032645;28;20550;-70
2022/06/12 05:27:45;;;;;;;112.93;108.47;;;16.30;99.90;;;;;;5032868;28;20193;-70
2022/06/12 05:30:23;;;;;;;106.43;102.13;;;16.40;99.90;;;;;;5018231;28;20186;-70
2022/06/12 05:32:50;;;;;;;115.90;111.50;;;16.50;99.90;;;;;;5027086;28;20229;-70
2022/06/12 05:35:18;;;;;;;113.18;108.85;;;16.60;99.90;;;;;;5028764;28;20210;-71
2022/06/12 05:37:44;;;;;;;119.18;113.88;;;16.70;99.90;;;;;;5025929;28;20179;-70
2022/06/12 05:40:15;;;;;;;114.38;109.60;;;16.70;99.90;;;;;;5031283;28;20317;-71
2022/06/12 05:42:41;;;;;;;109.93;105.68;;;16.80;99.90;;;;;;5033347;28;20253;-71
2022/06/12 05:45:12;;;;;;;125.10;119.75;;;16.90;99.90;;;;;;5031199;28;20182;-70
2022/06/12 05:47:55;;;;;;;119.57;115.22;;;16.90;99.90;;;;;;5029714;28;20221;-71
2022/06/12 05:50:26;;;;;;;125.32;120.45;;;17.00;99.90;;;;;;5030331;28;20661;-71
2022/06/12 05:52:52;;;;;;;126.80;122.00;;;17.20;99.90;;;;;;5048146;28;20257;-71
2022/06/12 05:55:18;;;;;;;134.80;129.60;;;17.40;99.90;;;;;;5032137;28;20565;-71
2022/06/12 05:57:44;;;;;;;135.93;130.07;;;17.50;99.90;;;;;;5031763;28;20194;-71
2022/06/12 06:00:23;;;;;;;139.38;133.65;;;17.60;99.90;;;;;;5032248;28;20256;-71
2022/06/12 06:02:48;;;;;;;161.70;155.40;;;18.00;99.90;;;;;;5028067;28;20195;-70
2022/06/12 06:05:15;;;;;;;147.73;141.15;;;18.30;99.90;;;;;;5032200;28;20194;-70
2022/06/12 06:07:41;;;;;;;153.45;147.77;;;18.70;99.90;;;;;;5042438;28;20242;-72
2022/06/12 06:10:09;;;;;;;147.07;140.95;;;19.10;99.90;;;;;;5030027;28;20186;-73
2022/06/12 06:12:35;;;;;;;146.52;140.15;;;19.50;99.90;;;;;;5025128;28;20187;-73
2022/06/12 06:15:01;;;;;;;191.13;182.98;;;19.60;99.90;;;;;;5023912;28;20209;-72
2022/06/12 06:17:26;;;;;;;249.75;240.13;;;19.70;99.90;;;;;;5013546;28;20199;-72
2022/06/12 06:19:52;;;;;;;339.27;325.40;;;19.80;99.90;;;;;;5011451;28;20187;-72
2022/06/12 06:22:20;;;;;;;323.00;309.58;;;19.70;99.90;;;;;;5023029;28;20221;-73
2022/06/12 06:24:46;;;;;;;302.02;289.52;;;19.60;99.90;;;;;;5024965;28;20661;-73
2022/06/12 06:27:16;;;;;;;251.32;241.27;;;19.30;99.90;;;;;;5019385;28;20206;-73
2022/06/12 06:29:42;;;;;;;186.15;178.95;;;19.20;99.90;;;;;;5016891;28;20182;-73
2022/06/12 06:32:11;;;;;;;163.85;157.60;;;19.30;99.90;;;;;;5038729;28;20708;-73
2022/06/12 06:34:38;;;;;;;169.50;162.60;;;19.20;99.90;;;;;;5017536;28;20195;-73
2022/06/12 06:37:06;;;;;;;160.98;154.40;;;19.10;99.90;;;;;;5025020;28;20591;-73
2022/06/12 06:39:32;;;;;;;162.50;155.90;;;19.30;99.90;;;;;;5031086;28;20183;-72
2022/06/12 06:41:57;;;;;;;197.80;189.05;;;19.60;99.90;;;;;;5031391;28;20233;-72
2022/06/12 06:47:08;;;;;;;309.83;296.45;;;22.30;99.90;;;;;;5029730;28;20667;-73
2022/06/12 06:49:34;;;;;;;627.05;593.35;;;24.80;99.90;;;;;;5028731;28;20175;-73
2022/06/12 06:52:00;;;;;;;1999.90;999.90;;;26.70;99.90;;;;;;5028486;28;20201;-74
2022/06/12 06:54:26;;;;;;;1999.90;999.90;;;28.20;99.90;;;;;;5047436;28;20309;-73
2022/06/12 06:56:52;;;;;;;1999.90;999.90;;;29.80;99.90;;;;;;5031877;28;20536;-74
2022/06/12 06:59:18;;;;;;;1999.90;999.90;;;30.80;99.90;;;;;;5047461;28;20189;-74
2022/06/12 07:01:44;;;;;;;1999.90;999.90;;;31.30;99.90;;;;;;5030589;28;20201;-73
2022/06/12 07:04:10;;;;;;;1999.90;999.90;;;30.80;99.90;;;;;;5024711;28;20183;-74
2022/06/12 07:06:35;;;;;;;1999.90;999.90;;;30.30;99.90;;;;;;5024752;28;20195;-74
2022/06/12 07:09:02;;;;;;;1999.90;999.90;;;30.60;99.90;;;;;;5030205;28;20527;-74
2022/06/12 07:11:28;;;;;;;1999.90;999.90;;;30.70;99.90;;;;;;5027666;28;20242;-73
2022/06/12 07:13:56;;;;;;;1999.90;999.90;;;31.70;99.90;;;;;;5013752;28;20182;-74
2022/06/12 07:16:22;;;;;;;1999.90;999.90;;;32.40;99.90;;;;;;5014342;28;20685;-73
2022/06/12 07:18:48;;;;;;;1999.90;999.90;;;33.60;99.90;;;;;;5029592;28;20240;-74
2022/06/12 07:21:14;;;;;;;1999.90;999.90;;;33.70;99.90;;;;;;5025420;28;20593;-73
2022/06/12 07:23:41;;;;;;;1999.90;999.90;;;33.50;99.90;;;;;;5031280;28;20646;-73
2022/06/12 07:26:14;;;;;;;1999.90;999.90;;;34.40;99.90;;;;;;5021805;28;20229;-73
2022/06/12 07:28:40;;;;;;;1999.90;999.90;;;34.50;99.90;;;;;;5020712;28;20183;-73
2022/06/12 07:31:07;;;;;;;1999.90;999.90;;;34.60;99.90;;;;;;5025326;28;20197;-73
2022/06/12 07:33:32;;;;;;;1999.90;999.90;;;34.90;99.90;;;;;;5049359;28;20213;-74
2022/06/12 07:35:58;;;;;;;1999.90;999.90;;;34.50;99.90;;;;;;5026891;28;20236;-74
2022/06/12 07:38:27;;;;;;;1999.90;999.90;;;34.30;99.90;;;;;;5034926;28;20189;-74
2022/06/12 07:40:57;;;;;;;1999.90;999.90;;;34.60;99.90;;;;;;5032142;28;20179;-73
2022/06/12 07:43:25;;;;;;;1999.90;999.90;;;34.20;99.90;;;;;;5035173;28;20220;-73
2022/06/12 07:45:51;;;;;;;1999.90;999.90;;;34.30;99.90;;;;;;5050401;28;20185;-73
2022/06/12 07:48:21;;;;;;;1999.90;999.90;;;33.90;99.90;;;;;;5032143;28;20186;-73
2022/06/12 07:50:48;;;;;;;1999.90;999.90;;;33.60;99.90;;;;;;5035051;28;20174;-73
2022/06/12 07:53:15;;;;;;;1999.90;999.90;;;34.10;99.90;;;;;;5020583;28;20651;-73
2022/06/12 07:55:42;;;;;;;1999.90;999.90;;;34.00;99.90;;;;;;5021434;28;20710;-73
2022/06/12 07:58:09;;;;;;;1999.90;999.90;;;33.90;99.90;;;;;;5034489;28;20624;-73
2022/06/12 08:00:36;;;;;;;1999.90;999.90;;;34.50;99.90;;;;;;5028462;28;20751;-73
2022/06/12 08:03:02;;;;;;;1999.90;999.90;;;35.00;99.90;;;;;;5028354;28;20196;-73
2022/06/12 08:05:28;;;;;;;1999.90;999.90;;;35.10;99.90;;;;;;5031902;28;20190;-73
2022/06/12 08:07:54;;;;;;;1999.90;999.90;;;34.60;99.90;;;;;;5030032;28;20183;-73
2022/06/12 08:10:19;;;;;;;1999.90;999.90;;;33.90;99.90;;;;;;5029121;28;20309;-73
2022/06/12 08:12:46;;;;;;;1999.90;999.90;;;33.00;99.90;;;;;;5020285;28;20209;-74
2022/06/12 08:15:16;;;;;;;1999.90;999.90;;;33.20;99.90;;;;;;5025027;28;20608;-73
2022/06/12 08:17:42;;;;;;;1999.90;999.90;;;33.60;99.90;;;;;;5032764;28;20212;-73
2022/06/12 08:20:30;;;;;;;1999.90;999.90;;;33.80;99.90;;;;;;5030363;28;20186;-73
2022/06/12 08:23:01;;;;;;;1999.90;999.90;;;34.20;99.90;;;;;;5038396;28;20185;-73
2022/06/12 08:25:31;;;;;;;1999.90;999.90;;;33.90;99.90;;;;;;5032104;28;20182;-74
2022/06/12 08:27:56;;;;;;;1999.90;999.90;;;33.70;99.90;;;;;;5029942;28;20193;-73
2022/06/12 08:30:22;;;;;;;1999.90;999.90;;;34.00;99.90;;;;;;5025959;28;20194;-74
2022/06/12 08:32:50;;;;;;;1999.90;999.90;;;34.30;99.90;;;;;;5028887;28;20260;-74
2022/06/12 08:35:24;;;;;;;1999.90;999.90;;;34.20;99.90;;;;;;5017061;28;20201;-74
2022/06/12 08:37:51;;;;;;;1999.90;999.90;;;34.60;99.90;;;;;;5027666;28;20599;-74
2022/06/12 08:40:22;;;;;;;1999.90;999.90;;;35.10;99.90;;;;;;5019613;28;20185;-74
2022/06/12 08:43:11;;;;;;;1999.90;999.90;;;35.00;99.90;;;;;;5032588;28;20175;-73
2022/06/12 08:45:49;;;;;;;1999.90;999.90;;;35.60;99.90;;;;;;5017787;28;20329;-73
2022/06/12 08:48:31;;;;;;;1999.90;999.90;;;36.20;99.90;;;;;;5020664;28;20178;-73
2022/06/12 08:51:15;;;;;;;1999.90;999.90;;;36.30;99.90;;;;;;5020261;28;20247;-74
2022/06/12 08:54:03;;;;;;;1999.90;999.90;;;35.50;99.90;;;;;;5018400;28;20626;-74
2022/06/12 08:56:38;;;;;;;1999.90;999.90;;;35.30;99.90;;;;;;5018923;28;20242;-74
2022/06/12 08:59:34;;;;;;;1999.90;999.90;;;36.10;99.90;;;;;;5046772;28;20177;-74
2022/06/12 09:02:05;;;;;;;1999.90;999.90;;;35.30;99.90;;;;;;5028855;28;20198;-73
2022/06/12 09:04:33;;;;;;;1999.90;999.90;;;35.10;99.90;;;;;;5024211;28;20256;-74
2022/06/12 09:07:08;;;;;;;1999.90;999.90;;;34.90;99.90;;;;;;5029718;28;20586;-73
2022/06/12 09:09:53;;;;;;;1999.90;999.90;;;34.70;99.90;;;;;;5026819;28;20181;-74
2022/06/12 09:12:30;;;;;;;1999.90;999.90;;;34.70;99.90;;;;;;5026883;28;20178;-73
2022/06/12 09:15:05;;;;;;;1999.90;999.90;;;33.80;99.90;;;;;;5026793;28;20248;-74
2022/06/12 09:17:55;;;;;;;1999.90;999.90;;;33.60;99.90;;;;;;5027596;28;20265;-73
2022/06/12 09:20:46;;;;;;;1999.90;999.90;;;34.40;99.90;;;;;;5025315;28;20265;-74
2022/06/12 09:23:32;;;;;;;1999.90;999.90;;;35.20;99.90;;;;;;5018120;28;20202;-74
2022/06/12 09:26:19;;;;;;;1999.90;999.90;;;35.10;99.90;;;;;;5026354;28;20182;-74
2022/06/12 09:29:21;;;;;;;1999.90;999.90;;;35.50;99.90;;;;;;5020278;28;20186;-74
2022/06/12 09:31:56;;;;;;;1999.90;999.90;;;34.60;99.90;;;;;;5022078;28;20666;-74
2022/06/12 09:34:51;;;;;;;1999.90;999.90;;;34.20;99.90;;;;;;5017771;28;20178;-74
2022/06/12 09:40:32;;;;;;;1999.90;999.90;;;32.30;99.40;;;;;;5028108;28;20192;-74
2022/06/12 09:43:06;;;;;;;1999.90;999.90;;;30.80;99.90;;;;;;5031534;28;20261;-74
2022/06/12 09:45:50;;;;;;;1999.90;999.90;;;29.80;99.90;;;;;;5026545;28;20277;-74
2022/06/12 09:48:27;;;;;;;1999.90;999.90;;;29.20;99.90;;;;;;5046119;28;20205;-74
2022/06/12 09:51:12;;;;;;;1999.90;999.90;;;29.10;99.90;;;;;;5032597;28;20188;-73
2022/06/12 09:53:47;;;;;;;1999.90;999.90;;;28.90;99.90;;;;;;5021082;28;20205;-73
2022/06/12 09:56:20;;;;;;;1999.90;999.90;;;28.30;99.90;;;;;;5022916;28;20673;-74
2022/06/12 09:59:00;;;;;;;1999.90;999.90;;;27.80;99.90;;;;;;5028111;28;20655;-73
2022/06/12 10:01:32;;;;;;;1999.90;999.90;;;27.70;99.90;;;;;;5021119;28;20187;-74
2022/06/12 10:04:05;;;;;;;1999.90;999.90;;;27.60;99.90;;;;;;5027074;28;20193;-74
2022/06/12 10:06:43;;;;;;;1999.90;999.90;;;27.40;99.90;;;;;;5022751;28;20200;-74
2022/06/12 10:09:16;;;;;;;1999.90;999.90;;;27.50;99.90;;;;;;5022434;28;20191;-73
2022/06/12 10:12:07;;;;;;;1999.90;999.90;;;27.40;99.90;;;;;;5030747;28;20685;-73
2022/06/12 10:14:42;;;;;;;1999.90;999.90;;;27.20;99.90;;;;;;5020470;28;20224;-73
2022/06/12 10:17:20;;;;;;;1999.90;999.90;;;27.10;99.90;;;;;;5021637;28;20194;-73
2022/06/12 10:19:57;;;;;;;1999.90;999.90;;;27.10;99.90;;;;;;5041561;28;20603;-73
2022/06/12 10:22:31;;;;;;;1999.90;999.90;;;27.00;99.90;;;;;;5017223;28;20189;-73
2022/06/12 10:24:59;;;;;;;1999.90;999.90;;;26.80;99.90;;;;;;5029670;28;20569;-74
2022/06/12 10:27:37;;;;;;;1999.90;999.90;;;26.60;99.90;;;;;;5028753;28;20285;-73
2022/06/12 10:30:03;;;;;;;1999.90;999.90;;;26.70;99.90;;;;;;5032019;28;20186;-73
2022/06/12 10:32:48;;;;;;;1999.90;999.90;;;26.60;99.90;;;;;;5025527;28;20268;-74
2022/06/12 10:35:15;;;;;;;1999.90;999.90;;;26.80;99.90;;;;;;5032184;28;20197;-73
2022/06/12 10:37:41;;;;;;;1999.90;999.90;;;26.80;99.90;;;;;;5029215;28;20722;-73
2022/06/12 10:40:16;;;;;;;1999.90;999.90;;;26.80;99.90;;;;;;5025652;28;20261;-73
2022/06/12 10:42:50;;;;;;;1999.90;999.90;;;27.00;99.90;;;;;;5017486;28;20666;-73
2022/06/12 10:45:26;;;;;;;1999.90;999.90;;;27.00;99.90;;;;;;5016802;28;20269;-73
2022/06/12 10:47:54;;;;;;;1999.90;999.90;;;27.10;99.90;;;;;;5014763;28;20288;-75
2022/06/12 10:50:48;;;;;;;1999.90;999.90;;;27.10;99.90;;;;;;5040427;28;20281;-73
2022/06/12 10:53:17;;;;;;;1999.90;999.90;;;26.90;99.90;;;;;;5034041;28;20183;-73
2022/06/12 10:56:00;;;;;;;1999.90;999.90;;;26.70;99.90;;;;;;5022656;28;20230;-74
2022/06/12 10:58:34;;;;;;;1999.90;999.90;;;26.80;99.90;;;;;;5017132;28;20186;-73
2022/06/12 11:01:10;;;;;;;1999.90;999.90;;;26.80;99.90;;;;;;5027566;28;20182;-73
2022/06/12 11:04:00;;;;;;;1999.90;999.90;;;26.50;99.90;;;;;;5024229;28;20181;-73
2022/06/12 11:06:46;;;;;;;1999.90;999.90;;;26.50;99.90;;;;;;5021627;28;20183;-74
2022/06/12 11:09:21;;;;;;;1999.90;999.90;;;26.30;99.90;;;;;;5025074;28;20194;-73
2022/06/12 11:12:35;;;;;;;1999.90;999.90;;;26.10;99.90;;;;;;5028640;28;20725;-73
2022/06/12 11:15:28;;;;;;;1999.90;999.90;;;26.00;99.90;;;;;;5022952;28;20216;-73
2022/06/12 11:18:08;;;;;;;1999.90;999.90;;;26.00;99.90;;;;;;5034674;28;20538;-73
2022/06/12 11:21:00;;;;;;;1999.90;999.90;;;25.80;99.90;;;;;;5027119;28;20178;-73
2022/06/12 11:23:45;;;;;;;1999.90;999.90;;;26.00;99.90;;;;;;5030092;28;20178;-73
2022/06/12 11:26:34;;;;;;;1999.90;999.90;;;26.00;99.90;;;;;;5029419;28;20214;-72
2022/06/12 11:29:15;;;;;;;1999.90;999.90;;;25.90;99.90;;;;;;5027614;28;20301;-72
2022/06/12 11:32:15;;;;;;;1999.90;999.90;;;25.90;99.90;;;;;;5033757;28;20190;-75
2022/06/12 11:35:08;;;;;;;1999.90;999.90;;;26.10;99.90;;;;;;5041069;28;20550;-74
2022/06/12 11:38:02;;;;;;;1999.90;999.90;;;26.20;99.90;;;;;;5024143;28;20186;-73
2022/06/12 11:40:55;;;;;;;1999.90;999.90;;;26.40;99.90;;;;;;5020484;28;20643;-72
2022/06/12 11:43:40;;;;;;;1999.90;999.90;;;26.30;99.90;;;;;;5025362;28;21328;-72
2022/06/12 11:46:27;;;;;;;1999.90;999.90;;;26.40;99.90;;;;;;5027987;28;20256;-75
2022/06/12 11:48:53;;;;;;;1999.90;999.90;;;26.00;99.90;;;;;;5021326;28;20171;-72
2022/06/12 11:51:43;;;;;;;1999.90;999.90;;;25.90;99.90;;;;;;5023763;28;20182;-73
2022/06/12 11:54:36;;;;;;;1999.90;999.90;;;26.00;99.90;;;;;;5027192;28;20636;-75
2022/06/12 11:57:10;;;;;;;1999.90;999.90;;;26.10;99.90;;;;;;5018092;28;20179;-75
2022/06/12 11:59:39;;;;;;;1999.90;999.90;;;26.30;99.90;;;;;;5026714;28;20297;-75
2022/06/12 12:02:23;;;;;;;1999.90;999.90;;;26.40;99.90;;;;;;5027397;28;20210;-77
2022/06/12 12:05:30;;;;;;;1999.90;999.90;;;26.00;99.90;;;;;;5023479;28;20635;-75
2022/06/12 12:08:17;;;;;;;1999.90;999.90;;;25.60;99.90;;;;;;5031796;28;20535;-73
2022/06/12 12:10:46;;;;;;;1999.90;999.90;;;25.70;99.90;;;;;;5037762;28;20266;-73
2022/06/12 12:13:21;;;;;;;1999.90;999.90;;;25.40;99.90;;;;;;5033119;28;20183;-73
2022/06/12 12:15:52;;;;;;;1999.90;999.90;;;25.50;99.90;;;;;;5028836;28;20210;-71
2022/06/12 12:18:33;;;;;;;1999.90;999.90;;;26.00;99.90;;;;;;5022086;28;20195;-71
2022/06/12 12:21:02;;;;;;;1999.90;999.90;;;26.20;99.90;;;;;;5025209;28;20250;-72
2022/06/12 12:23:33;;;;;;;1999.90;999.90;;;26.40;99.90;;;;;;5015675;28;20661;-75
2022/06/12 12:26:02;;;;;;;1999.90;999.90;;;26.50;99.90;;;;;;5025855;28;20183;-72
2022/06/12 12:28:40;;;;;;;1999.90;999.90;;;26.70;99.90;;;;;;5039696;28;20274;-72
2022/06/12 12:31:17;;;;;;;1999.90;999.90;;;27.00;99.90;;;;;;5028679;28;20186;-72
2022/06/12 12:33:46;;;;;;;1999.90;999.90;;;26.90;99.90;;;;;;5022395;28;20232;-72
2022/06/12 12:41:53;;;;;;;1999.90;999.90;;;26.60;99.90;;;;;;5020961;28;20277;-72
2022/06/12 12:44:34;;;;;;;1999.90;999.90;;;26.80;99.90;;;;;;5030374;28;20656;-72
2022/06/12 12:47:00;;;;;;;1999.90;999.90;;;26.80;99.90;;;;;;5020315;28;20181;-72
2022/06/12 12:49:32;;;;;;;1999.90;999.90;;;26.80;99.90;;;;;;5029832;28;20189;-72
2022/06/12 12:52:15;;;;;;;1999.90;999.90;;;26.80;99.90;;;;;;5025343;28;20576;-72
2022/06/12 12:54:43;;;;;;;1999.90;999.90;;;26.60;99.90;;;;;;5025978;28;20199;-72
2022/06/12 12:57:10;;;;;;;1999.90;999.90;;;26.10;99.90;;;;;;5022889;28;20175;-72